sensor_id;sensor_type;location;lat;lon;timestamp;pressure;altitude;pressure_sealevel;temperature;humidity
63715;BME280;49858;48.956;9.076;2023-04-27T00:02:10;98847.59;;;12.51;91.68
63715;BME280;49858;48.956;9.076;2023-04-27T00:04:39;98843.25;;;12.50;90.62
63715;BME280;49858;48.956;9.076;2023-04-27T00:07:07;98846.41;;;12.10;94.61
63715;BME280;49858;48.956;9.076;2023-04-27T00:09:35;98847.28;;;12.33;96.39
63715;BME280;49858;48.956;9.076;2023-04-27T00:12:03;98848.72;;;12.69;93.07
63715;BME280;49858;48.956;9.076;2023-04-27T00:14:33;98847.75;;;12.81;91.87
63715;BME280;49858;48.956;9.076;2023-04-27T00:17:00;98843.81;;;12.59;94.61
63715;BME280;49858;48.956;9.076;2023-04-27T00:19:28;98840.56;;;12.53;94.53
63715;BME280;49858;48.956;9.076;2023-04-27T00:21:56;98844.78;;;12.47;95.54
63715;BME280;49858;48.956;9.076;2023-04-27T00:24:25;98838.34;;;12.63;94.15
63715;BME280;49858;48.956;9.076;2023-04-27T00:26:53;98838.16;;;12.52;96.25
63715;BME280;49858;48.956;9.076;2023-04-27T00:29:21;98836.53;;;12.51;97.16
63715;BME280;49858;48.956;9.076;2023-04-27T00:31:50;98834.88;;;12.46;95.07
63715;BME280;49858;48.956;9.076;2023-04-27T00:34:21;98830.41;;;12.38;95.22
63715;BME280;49858;48.956;9.076;2023-04-27T00:36:49;98823.75;;;12.62;94.32
63715;BME280;49858;48.956;9.076;2023-04-27T00:39:18;98827.13;;;12.75;94.34
63715;BME280;49858;48.956;9.076;2023-04-27T00:41:46;98828.41;;;12.58;95.96
63715;BME280;49858;48.956;9.076;2023-04-27T00:44:21;98818.50;;;12.34;98.86
63715;BME280;49858;48.956;9.076;2023-04-27T00:46:50;98814.66;;;12.39;97.55
63715;BME280;49858;48.956;9.076;2023-04-27T00:49:18;98812.03;;;12.69;95.66
63715;BME280;49858;48.956;9.076;2023-04-27T00:51:46;98803.59;;;12.81;94.14
63715;BME280;49858;48.956;9.076;2023-04-27T00:54:14;98803.66;;;12.85;94.14
63715;BME280;49858;48.956;9.076;2023-04-27T00:56:47;98813.38;;;11.94;95.97
63715;BME280;49858;48.956;9.076;2023-04-27T00:59:15;98825.16;;;11.75;100.00
63715;BME280;49858;48.956;9.076;2023-04-27T01:01:44;98825.63;;;12.16;100.00
63715;BME280;49858;48.956;9.076;2023-04-27T01:04:14;98831.00;;;12.47;100.00
63715;BME280;49858;48.956;9.076;2023-04-27T01:06:42;98825.47;;;12.47;99.43
63715;BME280;49858;48.956;9.076;2023-04-27T01:09:10;98824.31;;;12.71;98.45
63715;BME280;49858;48.956;9.076;2023-04-27T01:11:39;98818.97;;;12.82;96.50
63715;BME280;49858;48.956;9.076;2023-04-27T01:14:07;98826.88;;;12.61;95.06
63715;BME280;49858;48.956;9.076;2023-04-27T01:16:35;98828.22;;;12.47;94.84
63715;BME280;49858;48.956;9.076;2023-04-27T01:19:03;98827.47;;;12.50;94.98
63715;BME280;49858;48.956;9.076;2023-04-27T01:21:32;98828.53;;;12.65;93.76
63715;BME280;49858;48.956;9.076;2023-04-27T01:24:03;98822.72;;;12.47;92.47
63715;BME280;49858;48.956;9.076;2023-04-27T01:26:31;98825.78;;;12.65;91.45
63715;BME280;49858;48.956;9.076;2023-04-27T01:28:59;98821.91;;;12.70;91.01
63715;BME280;49858;48.956;9.076;2023-04-27T01:31:27;98819.72;;;12.79;90.58
63715;BME280;49858;48.956;9.076;2023-04-27T01:33:55;98820.16;;;12.81;90.21
63715;BME280;49858;48.956;9.076;2023-04-27T01:36:23;98823.88;;;12.69;89.78
63715;BME280;49858;48.956;9.076;2023-04-27T01:38:50;98827.44;;;12.70;89.46
63715;BME280;49858;48.956;9.076;2023-04-27T01:41:20;98826.34;;;12.51;90.29
63715;BME280;49858;48.956;9.076;2023-04-27T01:43:48;98822.22;;;12.65;91.40
63715;BME280;49858;48.956;9.076;2023-04-27T01:46:15;98823.88;;;12.69;92.35
63715;BME280;49858;48.956;9.076;2023-04-27T01:48:43;98827.09;;;12.71;91.88
63715;BME280;49858;48.956;9.076;2023-04-27T01:51:11;98830.94;;;12.67;92.14
63715;BME280;49858;48.956;9.076;2023-04-27T01:53:40;98821.41;;;12.64;92.77
63715;BME280;49858;48.956;9.076;2023-04-27T01:56:08;98835.28;;;12.68;92.59
63715;BME280;49858;48.956;9.076;2023-04-27T01:58:38;98829.63;;;12.61;92.66
63715;BME280;49858;48.956;9.076;2023-04-27T02:01:05;98829.09;;;12.32;93.52
63715;BME280;49858;48.956;9.076;2023-04-27T02:03:33;98826.88;;;12.38;94.02
63715;BME280;49858;48.956;9.076;2023-04-27T02:06:04;98833.03;;;12.31;95.51
63715;BME280;49858;48.956;9.076;2023-04-27T02:08:33;98829.31;;;12.04;95.40
63715;BME280;49858;48.956;9.076;2023-04-27T02:11:00;98836.97;;;11.91;95.06
63715;BME280;49858;48.956;9.076;2023-04-27T02:13:28;98838.34;;;12.01;94.68
63715;BME280;49858;48.956;9.076;2023-04-27T02:15:57;98833.78;;;12.28;94.00
63715;BME280;49858;48.956;9.076;2023-04-27T02:18:27;98825.19;;;12.33;93.28
63715;BME280;49858;48.956;9.076;2023-04-27T02:20:55;98833.53;;;11.98;95.79
63715;BME280;49858;48.956;9.076;2023-04-27T02:23:23;98839.88;;;11.47;99.44
63715;BME280;49858;48.956;9.076;2023-04-27T02:25:51;98842.13;;;11.77;96.25
63715;BME280;49858;48.956;9.076;2023-04-27T02:28:19;98841.03;;;11.62;96.07
63715;BME280;49858;48.956;9.076;2023-04-27T02:30:47;98837.72;;;11.72;95.90
63715;BME280;49858;48.956;9.076;2023-04-27T02:33:16;98842.19;;;11.96;95.13
63715;BME280;49858;48.956;9.076;2023-04-27T02:35:44;98841.16;;;11.85;95.09
63715;BME280;49858;48.956;9.076;2023-04-27T02:38:12;98844.44;;;11.91;96.05
63715;BME280;49858;48.956;9.076;2023-04-27T02:40:41;98843.47;;;11.83;95.59
63715;BME280;49858;48.956;9.076;2023-04-27T02:43:09;98851.78;;;11.51;97.34
63715;BME280;49858;48.956;9.076;2023-04-27T02:45:37;98855.72;;;11.50;98.52
63715;BME280;49858;48.956;9.076;2023-04-27T02:48:05;98847.66;;;11.77;97.40
63715;BME280;49858;48.956;9.076;2023-04-27T02:50:39;98851.88;;;11.55;99.50
63715;BME280;49858;48.956;9.076;2023-04-27T02:53:07;98854.88;;;11.66;98.33
63715;BME280;49858;48.956;9.076;2023-04-27T02:55:35;98861.72;;;11.72;96.40
63715;BME280;49858;48.956;9.076;2023-04-27T02:58:03;98854.94;;;11.18;100.00
63715;BME280;49858;48.956;9.076;2023-04-27T03:00:31;98856.69;;;11.58;98.72
63715;BME280;49858;48.956;9.076;2023-04-27T03:02:59;98854.53;;;11.67;97.86
63715;BME280;49858;48.956;9.076;2023-04-27T03:05:27;98849.00;;;11.67;98.01
63715;BME280;49858;48.956;9.076;2023-04-27T03:07:58;98848.78;;;11.92;100.00
63715;BME280;49858;48.956;9.076;2023-04-27T03:10:26;98857.63;;;11.66;99.18
63715;BME280;49858;48.956;9.076;2023-04-27T03:12:54;98856.91;;;12.04;97.34
63715;BME280;49858;48.956;9.076;2023-04-27T03:15:22;98845.53;;;12.06;96.72
63715;BME280;49858;48.956;9.076;2023-04-27T03:17:51;98854.72;;;12.13;97.10
63715;BME280;49858;48.956;9.076;2023-04-27T03:20:20;98854.81;;;12.17;95.66
63715;BME280;49858;48.956;9.076;2023-04-27T03:22:48;98850.28;;;11.38;100.00
63715;BME280;49858;48.956;9.076;2023-04-27T03:25:19;98854.91;;;11.50;100.00
63715;BME280;49858;48.956;9.076;2023-04-27T03:27:48;98847.34;;;11.47;100.00
63715;BME280;49858;48.956;9.076;2023-04-27T03:30:16;98852.63;;;11.87;100.00
63715;BME280;49858;48.956;9.076;2023-04-27T03:32:44;98852.63;;;11.87;100.00
63715;BME280;49858;48.956;9.076;2023-04-27T03:35:13;98861.25;;;11.19;100.00
63715;BME280;49858;48.956;9.076;2023-04-27T03:37:43;98861.59;;;10.70;100.00
63715;BME280;49858;48.956;9.076;2023-04-27T03:40:12;98863.06;;;10.52;100.00
63715;BME280;49858;48.956;9.076;2023-04-27T03:42:42;98859.69;;;10.58;100.00
63715;BME280;49858;48.956;9.076;2023-04-27T03:45:10;98863.00;;;10.64;100.00
63715;BME280;49858;48.956;9.076;2023-04-27T03:47:38;98865.16;;;10.14;100.00
63715;BME280;49858;48.956;9.076;2023-04-27T03:50:07;98868.91;;;10.22;100.00
63715;BME280;49858;48.956;9.076;2023-04-27T03:52:35;98872.81;;;10.21;100.00
63715;BME280;49858;48.956;9.076;2023-04-27T03:55:04;98864.09;;;10.19;100.00
63715;BME280;49858;48.956;9.076;2023-04-27T03:57:33;98866.88;;;10.07;100.00
63715;BME280;49858;48.956;9.076;2023-04-27T04:00:05;98873.53;;;10.46;100.00
63715;BME280;49858;48.956;9.076;2023-04-27T04:02:38;98868.56;;;10.52;100.00
63715;BME280;49858;48.956;9.076;2023-04-27T04:05:06;98870.59;;;10.83;100.00
63715;BME280;49858;48.956;9.076;2023-04-27T04:07:38;98863.66;;;10.73;100.00
63715;BME280;49858;48.956;9.076;2023-04-27T04:10:10;98861.41;;;11.10;100.00
63715;BME280;49858;48.956;9.076;2023-04-27T04:12:40;98868.00;;;11.37;100.00
63715;BME280;49858;48.956;9.076;2023-04-27T04:15:09;98863.09;;;11.46;100.00
63715;BME280;49858;48.956;9.076;2023-04-27T04:17:37;98863.50;;;11.64;100.00
63715;BME280;49858;48.956;9.076;2023-04-27T04:20:06;98858.41;;;11.66;100.00
63715;BME280;49858;48.956;9.076;2023-04-27T04:22:36;98866.31;;;11.48;100.00
63715;BME280;49858;48.956;9.076;2023-04-27T04:25:05;98865.75;;;11.59;100.00
63715;BME280;49858;48.956;9.076;2023-04-27T04:27:34;98867.38;;;11.79;100.00
63715;BME280;49858;48.956;9.076;2023-04-27T04:30:04;98864.34;;;11.33;100.00
63715;BME280;49858;48.956;9.076;2023-04-27T04:32:35;98870.38;;;11.55;100.00
63715;BME280;49858;48.956;9.076;2023-04-27T04:35:05;98868.31;;;11.51;100.00
63715;BME280;49858;48.956;9.076;2023-04-27T04:37:33;98866.06;;;11.73;100.00
63715;BME280;49858;48.956;9.076;2023-04-27T04:40:05;98874.28;;;11.38;100.00
63715;BME280;49858;48.956;9.076;2023-04-27T04:42:37;98867.91;;;11.34;100.00
63715;BME280;49858;48.956;9.076;2023-04-27T04:45:07;98865.69;;;11.08;100.00
63715;BME280;49858;48.956;9.076;2023-04-27T04:47:37;98873.44;;;11.02;100.00
63715;BME280;49858;48.956;9.076;2023-04-27T04:50:06;98870.16;;;10.96;100.00
63715;BME280;49858;48.956;9.076;2023-04-27T04:52:35;98875.09;;;10.91;100.00
63715;BME280;49858;48.956;9.076;2023-04-27T04:55:05;98872.66;;;10.58;100.00
63715;BME280;49858;48.956;9.076;2023-04-27T04:57:33;98877.72;;;10.56;100.00
63715;BME280;49858;48.956;9.076;2023-04-27T05:00:01;98871.72;;;10.38;100.00
63715;BME280;49858;48.956;9.076;2023-04-27T05:02:32;98870.50;;;10.35;100.00
63715;BME280;49858;48.956;9.076;2023-04-27T05:05:02;98884.13;;;10.19;100.00
63715;BME280;49858;48.956;9.076;2023-04-27T05:07:30;98890.28;;;10.01;100.00
63715;BME280;49858;48.956;9.076;2023-04-27T05:09:57;98889.44;;;10.12;100.00
63715;BME280;49858;48.956;9.076;2023-04-27T05:12:25;98882.44;;;10.27;100.00
63715;BME280;49858;48.956;9.076;2023-04-27T05:14:53;98882.28;;;10.64;100.00
63715;BME280;49858;48.956;9.076;2023-04-27T05:17:21;98880.22;;;10.77;100.00
63715;BME280;49858;48.956;9.076;2023-04-27T05:19:49;98890.72;;;10.87;100.00
63715;BME280;49858;48.956;9.076;2023-04-27T05:22:18;98877.78;;;11.03;100.00
63715;BME280;49858;48.956;9.076;2023-04-27T05:24:46;98886.22;;;10.94;100.00
63715;BME280;49858;48.956;9.076;2023-04-27T05:27:14;98886.00;;;10.71;100.00
63715;BME280;49858;48.956;9.076;2023-04-27T05:29:42;98879.16;;;10.65;100.00
63715;BME280;49858;48.956;9.076;2023-04-27T05:32:10;98887.06;;;10.67;100.00
63715;BME280;49858;48.956;9.076;2023-04-27T05:34:37;98883.72;;;10.89;100.00
63715;BME280;49858;48.956;9.076;2023-04-27T05:37:06;98897.84;;;10.88;100.00
63715;BME280;49858;48.956;9.076;2023-04-27T05:39:35;98893.84;;;11.17;100.00
63715;BME280;49858;48.956;9.076;2023-04-27T05:42:04;98896.34;;;11.22;100.00
63715;BME280;49858;48.956;9.076;2023-04-27T05:44:31;98895.31;;;11.62;100.00
63715;BME280;49858;48.956;9.076;2023-04-27T05:46:59;98901.59;;;11.78;100.00
63715;BME280;49858;48.956;9.076;2023-04-27T05:49:27;98901.19;;;12.11;100.00
63715;BME280;49858;48.956;9.076;2023-04-27T05:51:55;98904.16;;;12.22;100.00
63715;BME280;49858;48.956;9.076;2023-04-27T05:54:24;98908.53;;;11.88;100.00
63715;BME280;49858;48.956;9.076;2023-04-27T05:56:54;98916.66;;;12.54;100.00
63715;BME280;49858;48.956;9.076;2023-04-27T05:59:22;98912.97;;;12.47;100.00
63715;BME280;49858;48.956;9.076;2023-04-27T06:01:50;98908.03;;;12.79;100.00
63715;BME280;49858;48.956;9.076;2023-04-27T06:04:18;98907.19;;;12.98;100.00
63715;BME280;49858;48.956;9.076;2023-04-27T06:06:46;98913.63;;;13.25;100.00
63715;BME280;49858;48.956;9.076;2023-04-27T06:09:14;98912.38;;;12.99;100.00
63715;BME280;49858;48.956;9.076;2023-04-27T06:11:42;98908.69;;;13.15;100.00
63715;BME280;49858;48.956;9.076;2023-04-27T06:14:14;98921.25;;;13.32;100.00
63715;BME280;49858;48.956;9.076;2023-04-27T06:16:42;98913.47;;;12.95;100.00
63715;BME280;49858;48.956;9.076;2023-04-27T06:19:10;98910.72;;;13.18;100.00
63715;BME280;49858;48.956;9.076;2023-04-27T06:21:38;98920.75;;;13.26;100.00
63715;BME280;49858;48.956;9.076;2023-04-27T06:24:06;98919.59;;;13.08;100.00
63715;BME280;49858;48.956;9.076;2023-04-27T06:26:34;98922.44;;;13.11;100.00
63715;BME280;49858;48.956;9.076;2023-04-27T06:29:02;98914.16;;;13.57;100.00
63715;BME280;49858;48.956;9.076;2023-04-27T06:31:34;98916.03;;;13.76;98.55
63715;BME280;49858;48.956;9.076;2023-04-27T06:34:02;98920.72;;;13.98;98.81
63715;BME280;49858;48.956;9.076;2023-04-27T06:36:30;98917.84;;;13.65;98.07
63715;BME280;49858;48.956;9.076;2023-04-27T06:38:58;98924.53;;;13.41;99.17
63715;BME280;49858;48.956;9.076;2023-04-27T06:41:26;98927.31;;;13.18;100.00
63715;BME280;49858;48.956;9.076;2023-04-27T06:43:53;98926.41;;;13.33;100.00
63715;BME280;49858;48.956;9.076;2023-04-27T06:46:24;98923.06;;;13.70;99.90
63715;BME280;49858;48.956;9.076;2023-04-27T06:48:53;98931.75;;;13.72;99.43
63715;BME280;49858;48.956;9.076;2023-04-27T06:51:21;98931.38;;;13.73;100.00
63715;BME280;49858;48.956;9.076;2023-04-27T06:53:49;98931.78;;;14.02;100.00
63715;BME280;49858;48.956;9.076;2023-04-27T06:56:17;98942.38;;;14.23;99.12
63715;BME280;49858;48.956;9.076;2023-04-27T06:58:45;98942.25;;;14.42;98.55
63715;BME280;49858;48.956;9.076;2023-04-27T07:01:12;98940.78;;;14.86;96.26
63715;BME280;49858;48.956;9.076;2023-04-27T07:03:40;98934.06;;;14.83;95.39
63715;BME280;49858;48.956;9.076;2023-04-27T07:06:10;98944.03;;;14.57;97.41
63715;BME280;49858;48.956;9.076;2023-04-27T07:08:39;98935.88;;;14.72;94.17
63715;BME280;49858;48.956;9.076;2023-04-27T07:11:06;98940.28;;;14.76;95.09
63715;BME280;49858;48.956;9.076;2023-04-27T07:13:36;98936.47;;;14.88;94.52
63715;BME280;49858;48.956;9.076;2023-04-27T07:16:04;98937.03;;;14.67;96.00
63715;BME280;49858;48.956;9.076;2023-04-27T07:18:33;98935.50;;;15.07;94.76
63715;BME280;49858;48.956;9.076;2023-04-27T07:21:00;98934.25;;;14.67;97.82
63715;BME280;49858;48.956;9.076;2023-04-27T07:23:30;98933.34;;;15.30;95.01
63715;BME280;49858;48.956;9.076;2023-04-27T07:25:58;98938.91;;;14.93;95.98
63715;BME280;49858;48.956;9.076;2023-04-27T07:28:27;98934.00;;;15.17;96.14
63715;BME280;49858;48.956;9.076;2023-04-27T07:30:55;98927.50;;;15.43;95.09
63715;BME280;49858;48.956;9.076;2023-04-27T07:33:23;98934.00;;;15.17;96.89
63715;BME280;49858;48.956;9.076;2023-04-27T07:35:53;98929.56;;;15.08;99.52
63715;BME280;49858;48.956;9.076;2023-04-27T07:38:22;98932.16;;;15.31;94.80
63715;BME280;49858;48.956;9.076;2023-04-27T07:40:52;98934.19;;;15.34;96.86
63715;BME280;49858;48.956;9.076;2023-04-27T07:43:20;98939.09;;;15.55;96.17
63715;BME280;49858;48.956;9.076;2023-04-27T07:45:49;98934.88;;;15.69;94.13
63715;BME280;49858;48.956;9.076;2023-04-27T07:48:17;98931.63;;;16.18;92.61
63715;BME280;49858;48.956;9.076;2023-04-27T07:50:45;98933.53;;;16.07;92.37
63715;BME280;49858;48.956;9.076;2023-04-27T07:53:13;98922.31;;;15.89;92.34
63715;BME280;49858;48.956;9.076;2023-04-27T07:55:41;98925.13;;;16.66;89.38
63715;BME280;49858;48.956;9.076;2023-04-27T07:58:11;98924.00;;;16.84;86.72
63715;BME280;49858;48.956;9.076;2023-04-27T08:00:39;98928.56;;;16.38;90.08
63715;BME280;49858;48.956;9.076;2023-04-27T08:03:07;98921.13;;;16.63;88.39
63715;BME280;49858;48.956;9.076;2023-04-27T08:05:35;98928.44;;;17.25;86.81
63715;BME280;49858;48.956;9.076;2023-04-27T08:08:04;98925.69;;;17.32;86.38
63715;BME280;49858;48.956;9.076;2023-04-27T08:10:32;98925.28;;;17.55;86.21
63715;BME280;49858;48.956;9.076;2023-04-27T08:13:00;98920.13;;;17.46;84.47
63715;BME280;49858;48.956;9.076;2023-04-27T08:15:30;98921.28;;;18.13;80.02
63715;BME280;49858;48.956;9.076;2023-04-27T08:17:57;98912.72;;;18.77;77.99
63715;BME280;49858;48.956;9.076;2023-04-27T08:20:25;98914.56;;;19.02;73.34
63715;BME280;49858;48.956;9.076;2023-04-27T08:22:53;98923.53;;;19.27;71.76
63715;BME280;49858;48.956;9.076;2023-04-27T08:25:22;98910.81;;;18.49;73.69
63715;BME280;49858;48.956;9.076;2023-04-27T08:27:50;98909.63;;;18.50;71.81
63715;BME280;49858;48.956;9.076;2023-04-27T08:30:18;98904.56;;;19.08;73.02
63715;BME280;49858;48.956;9.076;2023-04-27T08:32:48;98910.22;;;19.53;69.25
63715;BME280;49858;48.956;9.076;2023-04-27T08:35:16;98906.13;;;19.09;72.37
63715;BME280;49858;48.956;9.076;2023-04-27T08:37:43;98905.84;;;20.31;66.14
63715;BME280;49858;48.956;9.076;2023-04-27T08:40:12;98891.09;;;21.22;64.25
63715;BME280;49858;48.956;9.076;2023-04-27T08:42:52;98892.00;;;21.12;60.99
63715;BME280;49858;48.956;9.076;2023-04-27T08:45:21;98884.28;;;20.96;61.18
63715;BME280;49858;48.956;9.076;2023-04-27T08:47:51;98894.25;;;19.98;63.63
63715;BME280;49858;48.956;9.076;2023-04-27T08:50:19;98886.44;;;20.85;58.66
63715;BME280;49858;48.956;9.076;2023-04-27T08:52:49;98881.22;;;21.41;53.61
63715;BME280;49858;48.956;9.076;2023-04-27T08:55:17;98887.66;;;21.38;51.87
63715;BME280;49858;48.956;9.076;2023-04-27T08:57:55;98887.97;;;21.67;51.34
63715;BME280;49858;48.956;9.076;2023-04-27T09:00:24;98890.59;;;21.27;52.20
63715;BME280;49858;48.956;9.076;2023-04-27T09:02:53;98889.28;;;21.82;48.58
63715;BME280;49858;48.956;9.076;2023-04-27T09:05:22;98895.56;;;21.66;48.71
63715;BME280;49858;48.956;9.076;2023-04-27T09:08:00;98892.09;;;21.35;50.62
63715;BME280;49858;48.956;9.076;2023-04-27T09:10:42;98895.50;;;22.17;47.18
63715;BME280;49858;48.956;9.076;2023-04-27T09:13:10;98894.41;;;21.64;47.07
63715;BME280;49858;48.956;9.076;2023-04-27T09:15:43;98901.22;;;21.86;46.63
63715;BME280;49858;48.956;9.076;2023-04-27T09:18:17;98901.75;;;21.04;47.92
63715;BME280;49858;48.956;9.076;2023-04-27T09:20:46;98900.31;;;21.46;45.72
63715;BME280;49858;48.956;9.076;2023-04-27T09:23:27;98903.25;;;18.46;53.72
63715;BME280;49858;48.956;9.076;2023-04-27T09:25:56;98912.97;;;17.77;58.17
63715;BME280;49858;48.956;9.076;2023-04-27T09:28:25;98915.75;;;17.38;57.94
63715;BME280;49858;48.956;9.076;2023-04-27T09:30:55;98911.28;;;18.26;55.91
63715;BME280;49858;48.956;9.076;2023-04-27T09:33:29;98905.56;;;19.32;50.78
63715;BME280;49858;48.956;9.076;2023-04-27T09:35:58;98904.47;;;20.12;45.67
63715;BME280;49858;48.956;9.076;2023-04-27T09:38:26;98897.94;;;20.26;46.15
63715;BME280;49858;48.956;9.076;2023-04-27T09:40:54;98909.81;;;17.79;51.01
63715;BME280;49858;48.956;9.076;2023-04-27T09:43:23;98908.59;;;17.33;54.20
63715;BME280;49858;48.956;9.076;2023-04-27T09:45:53;98904.75;;;16.40;53.69
63715;BME280;49858;48.956;9.076;2023-04-27T09:48:23;98895.47;;;17.05;52.71
63715;BME280;49858;48.956;9.076;2023-04-27T09:50:53;98899.44;;;17.83;50.33
63715;BME280;49858;48.956;9.076;2023-04-27T09:53:25;98887.38;;;19.17;44.12
63715;BME280;49858;48.956;9.076;2023-04-27T09:56:05;98892.69;;;18.97;46.26
63715;BME280;49858;48.956;9.076;2023-04-27T10:01:47;98875.50;;;23.11;38.83
63715;BME280;49858;48.956;9.076;2023-04-27T10:04:30;98882.78;;;23.74;38.20
63715;BME280;49858;48.956;9.076;2023-04-27T10:07:04;98881.91;;;23.77;36.10
63715;BME280;49858;48.956;9.076;2023-04-27T10:09:40;98882.25;;;22.57;37.50
63715;BME280;49858;48.956;9.076;2023-04-27T10:12:16;98893.66;;;19.28;43.24
63715;BME280;49858;48.956;9.076;2023-04-27T10:14:49;98889.19;;;21.66;41.92
63715;BME280;49858;48.956;9.076;2023-04-27T10:17:18;98880.81;;;20.58;47.30
63715;BME280;49858;48.956;9.076;2023-04-27T10:19:56;98889.16;;;20.88;43.38
63715;BME280;49858;48.956;9.076;2023-04-27T10:22:37;98887.66;;;22.28;41.04
63715;BME280;49858;48.956;9.076;2023-04-27T10:25:16;98881.75;;;23.67;39.97
63715;BME280;49858;48.956;9.076;2023-04-27T10:27:48;98878.03;;;21.39;43.00
63715;BME280;49858;48.956;9.076;2023-04-27T10:30:18;98882.50;;;20.79;42.55
63715;BME280;49858;48.956;9.076;2023-04-27T10:32:51;98877.72;;;19.77;43.15
63715;BME280;49858;48.956;9.076;2023-04-27T10:35:20;98873.31;;;23.35;40.11
63715;BME280;49858;48.956;9.076;2023-04-27T10:37:50;98869.47;;;25.03;35.28
63715;BME280;49858;48.956;9.076;2023-04-27T10:40:31;98871.72;;;25.34;31.70
63715;BME280;49858;48.956;9.076;2023-04-27T10:43:07;98867.69;;;22.46;34.53
63715;BME280;49858;48.956;9.076;2023-04-27T10:45:35;98869.69;;;20.16;40.50
63715;BME280;49858;48.956;9.076;2023-04-27T10:48:04;98863.63;;;21.13;37.57
63715;BME280;49858;48.956;9.076;2023-04-27T10:50:32;98865.50;;;20.01;41.01
63715;BME280;49858;48.956;9.076;2023-04-27T10:53:03;98875.59;;;19.43;43.97
63715;BME280;49858;48.956;9.076;2023-04-27T10:55:32;98868.31;;;20.32;39.37
63715;BME280;49858;48.956;9.076;2023-04-27T10:58:02;98868.78;;;19.48;40.56
63715;BME280;49858;48.956;9.076;2023-04-27T11:00:32;98867.63;;;19.41;39.24
63715;BME280;49858;48.956;9.076;2023-04-27T11:03:12;98862.38;;;22.32;37.23
63715;BME280;49858;48.956;9.076;2023-04-27T11:05:40;98856.09;;;23.16;36.92
63715;BME280;49858;48.956;9.076;2023-04-27T11:08:11;98864.22;;;23.92;35.52
63715;BME280;49858;48.956;9.076;2023-04-27T11:10:42;98857.88;;;20.97;38.22
63715;BME280;49858;48.956;9.076;2023-04-27T11:13:13;98863.47;;;20.36;39.33
63715;BME280;49858;48.956;9.076;2023-04-27T11:15:46;98851.66;;;24.68;33.17
63715;BME280;49858;48.956;9.076;2023-04-27T11:18:16;98832.19;;;25.85;31.90
63715;BME280;49858;48.956;9.076;2023-04-27T11:20:47;98844.56;;;24.63;31.90
63715;BME280;49858;48.956;9.076;2023-04-27T11:23:24;98852.41;;;23.52;32.85
63715;BME280;49858;48.956;9.076;2023-04-27T11:25:52;98850.03;;;24.12;33.98
63715;BME280;49858;48.956;9.076;2023-04-27T11:28:21;98839.63;;;26.35;30.76
63715;BME280;49858;48.956;9.076;2023-04-27T11:30:55;98839.19;;;25.33;31.14
63715;BME280;49858;48.956;9.076;2023-04-27T11:33:23;98835.78;;;25.72;32.70
63715;BME280;49858;48.956;9.076;2023-04-27T11:35:51;98835.63;;;25.54;32.84
63715;BME280;49858;48.956;9.076;2023-04-27T11:38:19;98842.06;;;26.02;33.05
63715;BME280;49858;48.956;9.076;2023-04-27T11:41:02;98842.84;;;27.67;29.78
63715;BME280;49858;48.956;9.076;2023-04-27T11:43:31;98840.22;;;28.37;27.44
63715;BME280;49858;48.956;9.076;2023-04-27T11:46:01;98838.03;;;29.26;26.45
63715;BME280;49858;48.956;9.076;2023-04-27T11:48:30;98832.28;;;29.11;27.84
63715;BME280;49858;48.956;9.076;2023-04-27T11:50:57;98833.75;;;29.31;25.83
63715;BME280;49858;48.956;9.076;2023-04-27T11:53:31;98841.91;;;25.23;30.31
63715;BME280;49858;48.956;9.076;2023-04-27T11:56:01;98835.72;;;28.73;27.75
63715;BME280;49858;48.956;9.076;2023-04-27T11:58:32;98838.63;;;28.97;26.00
63715;BME280;49858;48.956;9.076;2023-04-27T12:01:00;98815.78;;;30.20;25.07
63715;BME280;49858;48.956;9.076;2023-04-27T12:03:28;98817.63;;;30.09;25.41
63715;BME280;49858;48.956;9.076;2023-04-27T12:06:00;98820.25;;;29.25;26.85
63715;BME280;49858;48.956;9.076;2023-04-27T12:08:48;98821.66;;;28.09;27.46
63715;BME280;49858;48.956;9.076;2023-04-27T12:11:18;98815.88;;;25.80;29.71
63715;BME280;49858;48.956;9.076;2023-04-27T12:13:46;98822.47;;;27.91;27.92
63715;BME280;49858;48.956;9.076;2023-04-27T12:16:14;98820.28;;;26.78;30.77
63715;BME280;49858;48.956;9.076;2023-04-27T12:18:42;98818.63;;;29.34;26.79
63715;BME280;49858;48.956;9.076;2023-04-27T12:21:09;98803.06;;;29.53;23.81
63715;BME280;49858;48.956;9.076;2023-04-27T12:23:38;98803.16;;;30.66;23.13
63715;BME280;49858;48.956;9.076;2023-04-27T12:26:05;98802.91;;;30.78;23.77
63715;BME280;49858;48.956;9.076;2023-04-27T12:28:35;98799.63;;;31.36;23.94
63715;BME280;49858;48.956;9.076;2023-04-27T12:31:04;98802.41;;;30.80;23.48
63715;BME280;49858;48.956;9.076;2023-04-27T12:33:32;98797.78;;;30.97;23.11
63715;BME280;49858;48.956;9.076;2023-04-27T12:36:00;98802.19;;;30.84;24.31
63715;BME280;49858;48.956;9.076;2023-04-27T12:38:31;98799.16;;;30.72;23.43
63715;BME280;49858;48.956;9.076;2023-04-27T12:41:00;98789.06;;;30.12;24.09
63715;BME280;49858;48.956;9.076;2023-04-27T12:43:29;98798.72;;;29.43;25.41
63715;BME280;49858;48.956;9.076;2023-04-27T12:45:58;98787.22;;;29.70;24.92
63715;BME280;49858;48.956;9.076;2023-04-27T12:48:26;98792.44;;;28.12;25.57
63715;BME280;49858;48.956;9.076;2023-04-27T12:50:58;98793.22;;;28.12;26.46
63715;BME280;49858;48.956;9.076;2023-04-27T12:53:26;98794.47;;;28.30;26.65
63715;BME280;49858;48.956;9.076;2023-04-27T12:55:55;98791.44;;;25.98;27.84
63715;BME280;49858;48.956;9.076;2023-04-27T12:58:22;98788.03;;;26.57;27.37
63715;BME280;49858;48.956;9.076;2023-04-27T13:00:50;98796.66;;;28.44;26.20
63715;BME280;49858;48.956;9.076;2023-04-27T13:03:20;98780.00;;;27.36;27.47
63715;BME280;49858;48.956;9.076;2023-04-27T13:05:48;98783.03;;;27.69;28.21
63715;BME280;49858;48.956;9.076;2023-04-27T13:08:17;98778.66;;;26.60;28.81
63715;BME280;49858;48.956;9.076;2023-04-27T13:10:45;98776.34;;;28.97;26.91
63715;BME280;49858;48.956;9.076;2023-04-27T13:13:12;98774.06;;;28.77;27.03